Airport Name : Campo Delio Jardim De Mattos

Other Name : Rio De Janeiro

ICAO : SBAF

IATA :

FAA :

Latitude : -22.875083

Longitude : -43.384708

Country : Brazil

Local Date and Time : 10/15/2018 5:58:00 PM

 

TAF (Terminal Aerodrome Forecast)

TAF SBAF 151530Z 1518/1606 18007KT 9999 SCT020 BKN040 TX25/1518Z TN21/1606Z PROB30 TEMPO 1519/1521 5000 RA BR BKN010 BKN020 BECMG 1521/1523 13006KT 9000 SCT010 BKN020 RMK PER

 

METAR (METeorological Aerodrome Report)

SBAF 152000Z 24005KT 9000 OVC020 22/19 Q1012

SBAF 151900Z 25009KT 9000 OVC020 22/19 Q1011

SBAF 151800Z 24007KT 9000 OVC020 23/19 Q1011

SBAF 151700Z 12004KT 9000 OVC020 24/18 Q1012